createdAt,value
2022-08-03T00:05:34.569Z,9
2022-08-03T00:22:10.395Z,8
2022-08-03T00:38:45.802Z,10
2022-08-03T00:55:16.660Z,9
2022-08-03T01:12:00.828Z,10
2022-08-03T01:28:28.064Z,10
2022-08-03T01:45:03.051Z,10
2022-08-03T02:02:32.023Z,11
2022-08-03T02:18:12.781Z,11
2022-08-03T02:34:47.219Z,10
2022-08-03T02:51:22.550Z,11
2022-08-03T03:07:57.823Z,12
2022-08-03T03:24:32.798Z,12
2022-08-03T03:41:09.071Z,12
2022-08-03T03:57:44.953Z,12
2022-08-03T04:14:20.602Z,12
2022-08-03T04:30:50.957Z,13
2022-08-03T04:47:27.213Z,14
2022-08-03T05:37:14.379Z,14
2022-08-03T06:27:05.343Z,15
2022-08-03T07:00:19.906Z,16
2022-08-03T07:33:36.986Z,17
2022-08-03T07:50:13.676Z,19
2022-08-03T08:06:55.101Z,20
2022-08-03T08:23:43.172Z,21
2022-08-03T08:40:16.599Z,21
2022-08-03T08:57:01.130Z,22
2022-08-03T09:13:46.672Z,20
2022-08-03T09:30:33.300Z,20
2022-08-03T09:47:17.774Z,20
2022-08-03T10:04:05.208Z,22
2022-08-03T10:20:48.741Z,22
2022-08-03T10:37:32.292Z,22
2022-08-03T11:11:00.105Z,23
2022-08-03T11:27:43.500Z,23
2022-08-03T11:44:27.765Z,23
2022-08-03T12:01:11.501Z,23
2022-08-03T12:17:49.269Z,23
2022-08-03T12:34:32.748Z,24
2022-08-03T12:51:14.690Z,25
2022-08-03T13:24:39.347Z,25
2022-08-03T13:41:16.461Z,24
2022-08-03T13:58:06.190Z,25
2022-08-03T14:14:34.974Z,22
2022-08-03T14:32:09.965Z,22
2022-08-03T14:50:27.925Z,24
2022-08-03T15:04:42.453Z,24
2022-08-03T15:21:47.245Z,24
2022-08-03T15:38:09.269Z,25
2022-08-03T15:54:44.942Z,25
2022-08-03T16:11:27.897Z,23
2022-08-03T16:44:53.235Z,25
2022-08-03T17:01:35.748Z,24
2022-08-03T17:18:18.067Z,25
2022-08-03T17:35:00.687Z,25
2022-08-03T17:51:46.548Z,25
2022-08-03T18:08:24.860Z,24
2022-08-03T18:25:07.768Z,24
2022-08-03T18:58:23.153Z,20
2022-08-03T19:15:04.074Z,17
2022-08-03T19:31:59.386Z,17
2022-08-03T19:48:23.994Z,17
2022-08-03T20:05:04.251Z,17
2022-08-03T20:21:43.051Z,16
2022-08-03T20:38:27.281Z,16
2022-08-03T20:54:59.547Z,16
2022-08-03T21:11:41.927Z,14
2022-08-03T21:28:15.297Z,14
2022-08-03T21:44:52.473Z,14
2022-08-03T22:01:35.171Z,14
2022-08-03T22:18:02.737Z,11
2022-08-03T22:34:40.693Z,13
2022-08-03T22:51:12.919Z,13
2022-08-03T23:07:45.003Z,14
2022-08-03T23:24:29.690Z,13
2022-08-03T23:40:58.838Z,12
2022-08-03T23:57:35.930Z,13
